Terminal Aerodrome Forecast
Issued by NWS

Home | Current Version | Previous Version | Text Only | Print | Product List | Glossary On
Versions: 1 2 3 4 5 6 7 8 9 10 11 12 13 14
000
FTUS44 KLIX 041740
TAFMCB
TAF
KMCB 041740Z 0418/0518 22008KT P6SM VCTS SCT035CB BKN050
      TEMPO 0418/0422 VRB20G35KT 2SM TSRA BKN030CB
     FM042300 20004KT P6SM VCTS SCT020CB BKN080
      TEMPO 0502/0506 VRB15G25KT 2SM TSRA BKN020CB
     FM051000 13003KT P6SM SCT020 BKN120=

USA.gov is the U.S. government's official web portal to all federal, state and local government web resources and services.